This is the latest recevied weather packets stored in our database for station/object LKPJ. If no packets are shown the sender has not sent any weather packets the latest 10 day(s).
| Time | Temp. | Humidity | Pressure | Rain* | Wind** | Luminosity | Snow |
|---|---|---|---|---|---|---|---|
| 1788307384 | 10.56° C | 93% | 1021 hPa | - | - | - | - |
| 1788306485 | 11.67° C | 87% | 1021 hPa | - | - | - | - |
| 1788305584 | 11.67° C | 87% | 1021 hPa | - | - | - | - |
| 1788304685 | 12.78° C | 76% | 1021 hPa | - | - | - | - |
| 1788303784 | 12.78° C | 76% | 1021 hPa | - | - | - | - |
| 1788302885 | 12.78° C | 82% | 1021 hPa | - | - | - | - |
| 1788301983 | 12.78° C | 82% | 1021 hPa | - | - | - | - |
| 1788301084 | 12.78° C | 82% | 1021 hPa | - | - | - | - |
| 1788300184 | 12.78° C | 82% | 1021 hPa | - | - | - | - |
| 1788299284 | 13.89° C | 76% | 1021 hPa | - | - | - | - |
| 1788298384 | 13.89° C | 76% | 1021 hPa | - | - | - | - |
| 1788297484 | 15° C | 72% | 1021 hPa | - | - | - | - |
| 1788296583 | 15° C | 72% | 1021 hPa | - | - | - | - |
| 1788295684 | 15° C | 72% | 1021 hPa | - | - | - | - |
| 1788294783 | 15° C | 72% | 1021 hPa | - | - | - | - |
| 1788293883 | 15° C | 76% | 1021 hPa | - | - | - | - |
| 1788292983 | 15° C | 76% | 1021 hPa | - | - | - | - |
| 1788292085 | 15.56° C | 72% | 1020 hPa | - | - | - | - |
| 1788291184 | 15.56° C | 72% | 1020 hPa | - | - | - | - |
| 1788290285 | 17.78° C | 63% | 1020 hPa | - | - | - | - |
| 1788289384 | 17.78° C | 63% | 1020 hPa | - | - | - | - |
| 1788288485 | 18.89° C | 59% | 1020 hPa | - | - | - | - |
| 1788287584 | 18.89° C | 59% | 1020 hPa | - | - | - | - |
| 1788286685 | 20.56° C | 49% | 1020 hPa | - | - | - | - |
| 1788285784 | 20.56° C | 49% | 1020 hPa | - | - | - | - |
* Rain since midnight (hover to see other rain measurements)
** Current wind speed in m/s (hover to see current wind gust speed)